sensor_id;sensor_type;location;lat;lon;timestamp;P1;durP1;ratioP1;P2;durP2;ratioP2
68714;SDS011;55692;53.356;10.030;2024-03-02T00:02:12;23.30;;;11.35;;
68714;SDS011;55692;53.356;10.030;2024-03-02T00:04:38;26.20;;;12.30;;
68714;SDS011;55692;53.356;10.030;2024-03-02T00:07:04;22.52;;;11.65;;
68714;SDS011;55692;53.356;10.030;2024-03-02T00:09:30;19.77;;;11.23;;
68714;SDS011;55692;53.356;10.030;2024-03-02T00:12:00;19.55;;;11.10;;
68714;SDS011;55692;53.356;10.030;2024-03-02T00:14:28;22.42;;;11.90;;
68714;SDS011;55692;53.356;10.030;2024-03-02T00:16:55;20.85;;;10.95;;
68714;SDS011;55692;53.356;10.030;2024-03-02T00:19:21;19.52;;;11.43;;
68714;SDS011;55692;53.356;10.030;2024-03-02T00:21:48;20.08;;;11.30;;
68714;SDS011;55692;53.356;10.030;2024-03-02T00:27:09;21.73;;;12.35;;
68714;SDS011;55692;53.356;10.030;2024-03-02T00:29:39;27.25;;;12.45;;
68714;SDS011;55692;53.356;10.030;2024-03-02T00:32:10;24.67;;;13.35;;
68714;SDS011;55692;53.356;10.030;2024-03-02T00:34:38;24.55;;;13.30;;
68714;SDS011;55692;53.356;10.030;2024-03-02T00:37:04;26.95;;;12.95;;
68714;SDS011;55692;53.356;10.030;2024-03-02T00:39:30;23.88;;;12.88;;
68714;SDS011;55692;53.356;10.030;2024-03-02T00:41:57;29.13;;;13.65;;
68714;SDS011;55692;53.356;10.030;2024-03-02T00:44:24;28.00;;;13.05;;
68714;SDS011;55692;53.356;10.030;2024-03-02T00:46:59;26.98;;;13.82;;
68714;SDS011;55692;53.356;10.030;2024-03-02T00:49:25;25.67;;;13.57;;
68714;SDS011;55692;53.356;10.030;2024-03-02T00:51:53;27.02;;;14.30;;
68714;SDS011;55692;53.356;10.030;2024-03-02T00:54:24;27.83;;;13.88;;
68714;SDS011;55692;53.356;10.030;2024-03-02T00:56:50;27.90;;;14.02;;
68714;SDS011;55692;53.356;10.030;2024-03-02T00:59:17;31.33;;;15.93;;
68714;SDS011;55692;53.356;10.030;2024-03-02T01:01:43;28.33;;;14.43;;
68714;SDS011;55692;53.356;10.030;2024-03-02T01:04:09;33.70;;;16.30;;
68714;SDS011;55692;53.356;10.030;2024-03-02T01:06:35;29.75;;;15.38;;
68714;SDS011;55692;53.356;10.030;2024-03-02T01:09:02;31.20;;;15.98;;
68714;SDS011;55692;53.356;10.030;2024-03-02T01:11:28;33.60;;;17.05;;
68714;SDS011;55692;53.356;10.030;2024-03-02T01:13:55;32.45;;;16.73;;
68714;SDS011;55692;53.356;10.030;2024-03-02T01:16:21;37.88;;;17.27;;
68714;SDS011;55692;53.356;10.030;2024-03-02T01:18:47;38.15;;;17.67;;
68714;SDS011;55692;53.356;10.030;2024-03-02T01:21:13;35.22;;;17.90;;
68714;SDS011;55692;53.356;10.030;2024-03-02T01:23:39;38.75;;;16.90;;
68714;SDS011;55692;53.356;10.030;2024-03-02T01:26:05;36.47;;;17.65;;
68714;SDS011;55692;53.356;10.030;2024-03-02T01:28:31;44.47;;;18.45;;
68714;SDS011;55692;53.356;10.030;2024-03-02T01:30:57;36.97;;;18.25;;
68714;SDS011;55692;53.356;10.030;2024-03-02T01:33:23;38.90;;;18.60;;
68714;SDS011;55692;53.356;10.030;2024-03-02T01:35:49;44.20;;;18.77;;
68714;SDS011;55692;53.356;10.030;2024-03-02T01:38:15;40.50;;;17.95;;
68714;SDS011;55692;53.356;10.030;2024-03-02T01:40:42;43.35;;;19.27;;
68714;SDS011;55692;53.356;10.030;2024-03-02T01:43:11;42.45;;;19.52;;
68714;SDS011;55692;53.356;10.030;2024-03-02T01:45:37;43.78;;;20.33;;
68714;SDS011;55692;53.356;10.030;2024-03-02T01:48:06;39.88;;;18.38;;
68714;SDS011;55692;53.356;10.030;2024-03-02T01:50:32;44.22;;;19.80;;
68714;SDS011;55692;53.356;10.030;2024-03-02T01:52:59;44.55;;;19.10;;
68714;SDS011;55692;53.356;10.030;2024-03-02T01:55:26;43.33;;;19.52;;
68714;SDS011;55692;53.356;10.030;2024-03-02T01:57:54;41.13;;;18.35;;
68714;SDS011;55692;53.356;10.030;2024-03-02T02:00:20;40.63;;;19.20;;
68714;SDS011;55692;53.356;10.030;2024-03-02T02:02:47;38.17;;;16.77;;
68714;SDS011;55692;53.356;10.030;2024-03-02T02:05:14;43.42;;;18.83;;
68714;SDS011;55692;53.356;10.030;2024-03-02T02:07:40;43.63;;;20.05;;
68714;SDS011;55692;53.356;10.030;2024-03-02T02:10:07;45.13;;;19.20;;
68714;SDS011;55692;53.356;10.030;2024-03-02T02:12:33;43.38;;;18.77;;
68714;SDS011;55692;53.356;10.030;2024-03-02T02:14:59;42.80;;;18.27;;
68714;SDS011;55692;53.356;10.030;2024-03-02T02:17:25;45.13;;;19.25;;
68714;SDS011;55692;53.356;10.030;2024-03-02T02:19:51;47.58;;;20.30;;
68714;SDS011;55692;53.356;10.030;2024-03-02T02:22:17;43.55;;;20.20;;
68714;SDS011;55692;53.356;10.030;2024-03-02T02:24:43;44.45;;;20.23;;
68714;SDS011;55692;53.356;10.030;2024-03-02T02:27:10;49.22;;;20.52;;
68714;SDS011;55692;53.356;10.030;2024-03-02T02:29:37;48.17;;;21.48;;
68714;SDS011;55692;53.356;10.030;2024-03-02T02:32:03;43.15;;;20.95;;
68714;SDS011;55692;53.356;10.030;2024-03-02T02:34:30;47.75;;;21.50;;
68714;SDS011;55692;53.356;10.030;2024-03-02T02:36:56;48.25;;;21.23;;
68714;SDS011;55692;53.356;10.030;2024-03-02T02:39:22;42.65;;;20.05;;
68714;SDS011;55692;53.356;10.030;2024-03-02T02:41:48;41.70;;;19.05;;
68714;SDS011;55692;53.356;10.030;2024-03-02T02:44:14;47.40;;;20.80;;
68714;SDS011;55692;53.356;10.030;2024-03-02T02:46:40;45.78;;;20.40;;
68714;SDS011;55692;53.356;10.030;2024-03-02T02:49:06;50.78;;;19.88;;
68714;SDS011;55692;53.356;10.030;2024-03-02T02:51:32;49.38;;;21.75;;
68714;SDS011;55692;53.356;10.030;2024-03-02T02:53:58;49.47;;;22.13;;
68714;SDS011;55692;53.356;10.030;2024-03-02T02:56:24;44.42;;;21.55;;
68714;SDS011;55692;53.356;10.030;2024-03-02T02:58:50;55.33;;;22.15;;
68714;SDS011;55692;53.356;10.030;2024-03-02T03:01:17;50.33;;;21.10;;
68714;SDS011;55692;53.356;10.030;2024-03-02T03:03:43;47.78;;;21.58;;
68714;SDS011;55692;53.356;10.030;2024-03-02T03:06:09;50.55;;;20.90;;
68714;SDS011;55692;53.356;10.030;2024-03-02T03:08:35;46.40;;;20.23;;
68714;SDS011;55692;53.356;10.030;2024-03-02T03:11:01;48.88;;;21.63;;
68714;SDS011;55692;53.356;10.030;2024-03-02T03:13:27;53.67;;;23.27;;
68714;SDS011;55692;53.356;10.030;2024-03-02T03:15:54;48.58;;;22.05;;
68714;SDS011;55692;53.356;10.030;2024-03-02T03:18:20;48.83;;;22.50;;
68714;SDS011;55692;53.356;10.030;2024-03-02T03:20:46;48.13;;;22.02;;
68714;SDS011;55692;53.356;10.030;2024-03-02T03:23:12;50.88;;;23.30;;
68714;SDS011;55692;53.356;10.030;2024-03-02T03:25:41;46.67;;;22.48;;
68714;SDS011;55692;53.356;10.030;2024-03-02T03:28:07;43.08;;;21.88;;
68714;SDS011;55692;53.356;10.030;2024-03-02T03:30:36;47.22;;;22.70;;
68714;SDS011;55692;53.356;10.030;2024-03-02T03:33:03;50.13;;;21.95;;
68714;SDS011;55692;53.356;10.030;2024-03-02T03:35:31;49.85;;;21.67;;
68714;SDS011;55692;53.356;10.030;2024-03-02T03:37:57;48.78;;;21.75;;
68714;SDS011;55692;53.356;10.030;2024-03-02T03:40:23;47.15;;;21.73;;
68714;SDS011;55692;53.356;10.030;2024-03-02T03:42:49;45.17;;;20.85;;
68714;SDS011;55692;53.356;10.030;2024-03-02T03:45:16;47.28;;;21.80;;
68714;SDS011;55692;53.356;10.030;2024-03-02T03:47:42;44.67;;;21.25;;
68714;SDS011;55692;53.356;10.030;2024-03-02T03:50:08;47.88;;;20.83;;
68714;SDS011;55692;53.356;10.030;2024-03-02T03:52:35;44.60;;;21.05;;
68714;SDS011;55692;53.356;10.030;2024-03-02T03:55:01;42.63;;;20.98;;
68714;SDS011;55692;53.356;10.030;2024-03-02T03:57:27;41.80;;;20.20;;
68714;SDS011;55692;53.356;10.030;2024-03-02T03:59:53;44.50;;;21.40;;
68714;SDS011;55692;53.356;10.030;2024-03-02T04:02:19;50.70;;;21.52;;
68714;SDS011;55692;53.356;10.030;2024-03-02T04:04:45;47.38;;;21.23;;
68714;SDS011;55692;53.356;10.030;2024-03-02T04:07:12;45.13;;;20.35;;
68714;SDS011;55692;53.356;10.030;2024-03-02T04:09:38;42.53;;;21.50;;
68714;SDS011;55692;53.356;10.030;2024-03-02T04:12:04;39.50;;;20.02;;
68714;SDS011;55692;53.356;10.030;2024-03-02T04:14:30;39.75;;;20.42;;
68714;SDS011;55692;53.356;10.030;2024-03-02T04:16:56;49.20;;;21.02;;
68714;SDS011;55692;53.356;10.030;2024-03-02T04:19:22;40.42;;;19.77;;
68714;SDS011;55692;53.356;10.030;2024-03-02T04:21:48;43.42;;;21.30;;
68714;SDS011;55692;53.356;10.030;2024-03-02T04:24:14;43.00;;;19.92;;
68714;SDS011;55692;53.356;10.030;2024-03-02T04:26:40;42.25;;;20.23;;
68714;SDS011;55692;53.356;10.030;2024-03-02T04:29:06;38.83;;;19.92;;
68714;SDS011;55692;53.356;10.030;2024-03-02T04:31:32;34.92;;;18.92;;
68714;SDS011;55692;53.356;10.030;2024-03-02T04:33:57;36.28;;;18.65;;
68714;SDS011;55692;53.356;10.030;2024-03-02T04:36:23;37.55;;;18.77;;
68714;SDS011;55692;53.356;10.030;2024-03-02T04:38:49;41.13;;;18.90;;
68714;SDS011;55692;53.356;10.030;2024-03-02T04:41:15;37.28;;;18.48;;
68714;SDS011;55692;53.356;10.030;2024-03-02T04:43:42;33.80;;;17.55;;
68714;SDS011;55692;53.356;10.030;2024-03-02T04:46:08;38.00;;;18.67;;
68714;SDS011;55692;53.356;10.030;2024-03-02T04:48:34;38.45;;;19.70;;
68714;SDS011;55692;53.356;10.030;2024-03-02T04:51:00;36.85;;;17.95;;
68714;SDS011;55692;53.356;10.030;2024-03-02T04:53:26;38.45;;;18.48;;
68714;SDS011;55692;53.356;10.030;2024-03-02T04:55:52;35.67;;;18.45;;
68714;SDS011;55692;53.356;10.030;2024-03-02T04:58:21;38.63;;;18.85;;
68714;SDS011;55692;53.356;10.030;2024-03-02T05:00:47;36.13;;;19.10;;
68714;SDS011;55692;53.356;10.030;2024-03-02T05:03:13;37.72;;;19.90;;
68714;SDS011;55692;53.356;10.030;2024-03-02T05:05:39;35.97;;;18.40;;
68714;SDS011;55692;53.356;10.030;2024-03-02T05:08:05;39.65;;;19.02;;
68714;SDS011;55692;53.356;10.030;2024-03-02T05:10:31;40.22;;;18.60;;
68714;SDS011;55692;53.356;10.030;2024-03-02T05:12:57;43.80;;;19.95;;
68714;SDS011;55692;53.356;10.030;2024-03-02T05:15:24;36.67;;;18.45;;
68714;SDS011;55692;53.356;10.030;2024-03-02T05:17:50;45.15;;;20.27;;
68714;SDS011;55692;53.356;10.030;2024-03-02T05:20:16;42.45;;;18.38;;
68714;SDS011;55692;53.356;10.030;2024-03-02T05:22:42;37.65;;;19.17;;
68714;SDS011;55692;53.356;10.030;2024-03-02T05:25:09;39.92;;;19.80;;
68714;SDS011;55692;53.356;10.030;2024-03-02T05:27:35;37.53;;;18.50;;
68714;SDS011;55692;53.356;10.030;2024-03-02T05:30:01;39.05;;;20.45;;
68714;SDS011;55692;53.356;10.030;2024-03-02T05:32:28;42.63;;;19.48;;
68714;SDS011;55692;53.356;10.030;2024-03-02T05:34:54;38.55;;;18.65;;
68714;SDS011;55692;53.356;10.030;2024-03-02T05:37:20;35.63;;;18.60;;
68714;SDS011;55692;53.356;10.030;2024-03-02T05:39:46;39.17;;;18.92;;
68714;SDS011;55692;53.356;10.030;2024-03-02T05:42:12;42.45;;;19.73;;
68714;SDS011;55692;53.356;10.030;2024-03-02T05:44:39;36.42;;;18.60;;
68714;SDS011;55692;53.356;10.030;2024-03-02T05:47:05;35.85;;;19.85;;
68714;SDS011;55692;53.356;10.030;2024-03-02T05:49:33;35.13;;;17.40;;
68714;SDS011;55692;53.356;10.030;2024-03-02T05:51:59;37.88;;;18.70;;
68714;SDS011;55692;53.356;10.030;2024-03-02T05:54:25;36.75;;;18.88;;
68714;SDS011;55692;53.356;10.030;2024-03-02T05:56:51;38.30;;;19.67;;
68714;SDS011;55692;53.356;10.030;2024-03-02T05:59:17;38.30;;;18.48;;
68714;SDS011;55692;53.356;10.030;2024-03-02T06:01:44;40.20;;;19.52;;
68714;SDS011;55692;53.356;10.030;2024-03-02T06:04:11;37.05;;;19.15;;
68714;SDS011;55692;53.356;10.030;2024-03-02T06:06:37;33.95;;;17.52;;
68714;SDS011;55692;53.356;10.030;2024-03-02T06:09:04;35.10;;;17.88;;
68714;SDS011;55692;53.356;10.030;2024-03-02T06:11:35;33.50;;;17.55;;
68714;SDS011;55692;53.356;10.030;2024-03-02T06:14:04;33.75;;;15.88;;
68714;SDS011;55692;53.356;10.030;2024-03-02T06:16:30;33.75;;;16.98;;
68714;SDS011;55692;53.356;10.030;2024-03-02T06:18:56;41.10;;;19.17;;
68714;SDS011;55692;53.356;10.030;2024-03-02T06:21:25;38.60;;;19.40;;
68714;SDS011;55692;53.356;10.030;2024-03-02T06:23:51;38.30;;;18.25;;
68714;SDS011;55692;53.356;10.030;2024-03-02T06:26:18;38.00;;;18.88;;
68714;SDS011;55692;53.356;10.030;2024-03-02T06:28:44;39.33;;;18.65;;
68714;SDS011;55692;53.356;10.030;2024-03-02T06:31:10;42.38;;;19.25;;
68714;SDS011;55692;53.356;10.030;2024-03-02T06:33:36;41.15;;;20.42;;
68714;SDS011;55692;53.356;10.030;2024-03-02T06:36:02;39.50;;;20.15;;
68714;SDS011;55692;53.356;10.030;2024-03-02T06:38:29;39.60;;;20.73;;
68714;SDS011;55692;53.356;10.030;2024-03-02T06:40:57;39.65;;;19.92;;
68714;SDS011;55692;53.356;10.030;2024-03-02T06:43:23;39.40;;;19.13;;
68714;SDS011;55692;53.356;10.030;2024-03-02T06:45:52;44.63;;;20.25;;
68714;SDS011;55692;53.356;10.030;2024-03-02T06:48:18;45.97;;;20.20;;
68714;SDS011;55692;53.356;10.030;2024-03-02T06:50:48;44.50;;;21.58;;
68714;SDS011;55692;53.356;10.030;2024-03-02T06:53:15;38.55;;;19.50;;
68714;SDS011;55692;53.356;10.030;2024-03-02T06:55:44;41.22;;;20.05;;
68714;SDS011;55692;53.356;10.030;2024-03-02T06:58:13;45.72;;;19.25;;
68714;SDS011;55692;53.356;10.030;2024-03-02T07:00:43;36.40;;;19.10;;
68714;SDS011;55692;53.356;10.030;2024-03-02T07:03:13;40.40;;;20.27;;
68714;SDS011;55692;53.356;10.030;2024-03-02T07:05:39;44.55;;;21.23;;
68714;SDS011;55692;53.356;10.030;2024-03-02T07:08:05;43.30;;;21.52;;
68714;SDS011;55692;53.356;10.030;2024-03-02T07:10:31;40.85;;;20.10;;
68714;SDS011;55692;53.356;10.030;2024-03-02T07:12:57;35.03;;;19.90;;
68714;SDS011;55692;53.356;10.030;2024-03-02T07:15:23;35.58;;;17.45;;
68714;SDS011;55692;53.356;10.030;2024-03-02T07:17:52;36.33;;;18.95;;
68714;SDS011;55692;53.356;10.030;2024-03-02T07:20:18;37.25;;;18.48;;
68714;SDS011;55692;53.356;10.030;2024-03-02T07:22:44;35.28;;;18.02;;
68714;SDS011;55692;53.356;10.030;2024-03-02T07:25:10;35.67;;;18.55;;
68714;SDS011;55692;53.356;10.030;2024-03-02T07:27:36;32.17;;;17.90;;
68714;SDS011;55692;53.356;10.030;2024-03-02T07:30:03;34.85;;;17.80;;
68714;SDS011;55692;53.356;10.030;2024-03-02T07:32:29;29.75;;;14.98;;
68714;SDS011;55692;53.356;10.030;2024-03-02T07:34:55;30.58;;;15.85;;
68714;SDS011;55692;53.356;10.030;2024-03-02T07:37:21;31.75;;;16.23;;
68714;SDS011;55692;53.356;10.030;2024-03-02T07:39:48;28.15;;;15.57;;
68714;SDS011;55692;53.356;10.030;2024-03-02T07:42:14;30.08;;;15.60;;
68714;SDS011;55692;53.356;10.030;2024-03-02T07:44:40;25.15;;;15.23;;
68714;SDS011;55692;53.356;10.030;2024-03-02T07:47:06;29.58;;;15.68;;
68714;SDS011;55692;53.356;10.030;2024-03-02T07:49:32;28.25;;;15.48;;
68714;SDS011;55692;53.356;10.030;2024-03-02T07:51:59;29.10;;;15.90;;
68714;SDS011;55692;53.356;10.030;2024-03-02T07:54:25;28.75;;;14.38;;
68714;SDS011;55692;53.356;10.030;2024-03-02T07:56:51;27.02;;;14.18;;
68714;SDS011;55692;53.356;10.030;2024-03-02T07:59:17;27.95;;;14.48;;
68714;SDS011;55692;53.356;10.030;2024-03-02T08:01:43;26.05;;;13.55;;
68714;SDS011;55692;53.356;10.030;2024-03-02T08:04:09;31.23;;;15.60;;
68714;SDS011;55692;53.356;10.030;2024-03-02T08:06:35;25.77;;;13.77;;
68714;SDS011;55692;53.356;10.030;2024-03-02T08:09:01;24.02;;;14.00;;
68714;SDS011;55692;53.356;10.030;2024-03-02T08:11:34;24.23;;;14.05;;
68714;SDS011;55692;53.356;10.030;2024-03-02T08:14:00;28.90;;;14.60;;
68714;SDS011;55692;53.356;10.030;2024-03-02T08:16:26;28.60;;;15.25;;
68714;SDS011;55692;53.356;10.030;2024-03-02T08:18:52;25.65;;;14.15;;
68714;SDS011;55692;53.356;10.030;2024-03-02T08:21:18;24.23;;;13.50;;
68714;SDS011;55692;53.356;10.030;2024-03-02T08:23:44;28.42;;;13.25;;
68714;SDS011;55692;53.356;10.030;2024-03-02T08:26:12;25.00;;;13.07;;
68714;SDS011;55692;53.356;10.030;2024-03-02T08:28:38;25.92;;;14.13;;
68714;SDS011;55692;53.356;10.030;2024-03-02T08:31:07;23.05;;;13.13;;
68714;SDS011;55692;53.356;10.030;2024-03-02T08:33:33;25.02;;;13.73;;
68714;SDS011;55692;53.356;10.030;2024-03-02T08:36:00;23.85;;;13.10;;
68714;SDS011;55692;53.356;10.030;2024-03-02T08:38:26;25.23;;;12.95;;
68714;SDS011;55692;53.356;10.030;2024-03-02T08:40:52;22.80;;;12.80;;
68714;SDS011;55692;53.356;10.030;2024-03-02T08:43:18;22.27;;;12.07;;
68714;SDS011;55692;53.356;10.030;2024-03-02T08:45:44;26.27;;;14.48;;
68714;SDS011;55692;53.356;10.030;2024-03-02T08:48:12;21.20;;;11.85;;
68714;SDS011;55692;53.356;10.030;2024-03-02T08:50:38;23.60;;;12.00;;
68714;SDS011;55692;53.356;10.030;2024-03-02T08:53:04;20.27;;;12.50;;
68714;SDS011;55692;53.356;10.030;2024-03-02T08:55:30;31.42;;;11.77;;
68714;SDS011;55692;53.356;10.030;2024-03-02T08:57:56;23.52;;;11.65;;
68714;SDS011;55692;53.356;10.030;2024-03-02T09:00:22;24.05;;;11.90;;
68714;SDS011;55692;53.356;10.030;2024-03-02T09:02:49;21.02;;;11.57;;
68714;SDS011;55692;53.356;10.030;2024-03-02T09:05:15;20.58;;;11.00;;
68714;SDS011;55692;53.356;10.030;2024-03-02T09:07:41;18.83;;;10.95;;
68714;SDS011;55692;53.356;10.030;2024-03-02T09:10:07;20.63;;;11.70;;
68714;SDS011;55692;53.356;10.030;2024-03-02T09:12:33;16.77;;;10.25;;
68714;SDS011;55692;53.356;10.030;2024-03-02T09:15:00;17.70;;;10.38;;
68714;SDS011;55692;53.356;10.030;2024-03-02T09:17:27;17.40;;;9.93;;
68714;SDS011;55692;53.356;10.030;2024-03-02T09:19:53;20.77;;;10.70;;
68714;SDS011;55692;53.356;10.030;2024-03-02T09:22:19;17.33;;;10.43;;
68714;SDS011;55692;53.356;10.030;2024-03-02T09:24:45;16.23;;;9.55;;
68714;SDS011;55692;53.356;10.030;2024-03-02T09:27:11;17.25;;;9.88;;
68714;SDS011;55692;53.356;10.030;2024-03-02T09:29:38;17.42;;;9.70;;
68714;SDS011;55692;53.356;10.030;2024-03-02T09:32:05;16.45;;;9.40;;
68714;SDS011;55692;53.356;10.030;2024-03-02T09:34:31;14.63;;;8.90;;
68714;SDS011;55692;53.356;10.030;2024-03-02T09:36:57;17.65;;;10.07;;
68714;SDS011;55692;53.356;10.030;2024-03-02T09:39:23;15.18;;;10.20;;
68714;SDS011;55692;53.356;10.030;2024-03-02T09:41:50;16.98;;;9.20;;
68714;SDS011;55692;53.356;10.030;2024-03-02T09:44:17;14.88;;;7.93;;
68714;SDS011;55692;53.356;10.030;2024-03-02T09:46:43;15.85;;;9.10;;
68714;SDS011;55692;53.356;10.030;2024-03-02T09:49:10;17.15;;;9.02;;
68714;SDS011;55692;53.356;10.030;2024-03-02T09:51:39;17.08;;;9.75;;
68714;SDS011;55692;53.356;10.030;2024-03-02T09:54:07;16.13;;;8.65;;
68714;SDS011;55692;53.356;10.030;2024-03-02T09:56:33;15.80;;;8.80;;
68714;SDS011;55692;53.356;10.030;2024-03-02T09:58:59;13.60;;;8.27;;
68714;SDS011;55692;53.356;10.030;2024-03-02T10:01:25;17.50;;;9.80;;
68714;SDS011;55692;53.356;10.030;2024-03-02T10:03:51;12.63;;;8.05;;
68714;SDS011;55692;53.356;10.030;2024-03-02T10:06:27;13.70;;;8.07;;
68714;SDS011;55692;53.356;10.030;2024-03-02T10:08:53;13.95;;;8.52;;
68714;SDS011;55692;53.356;10.030;2024-03-02T10:11:27;13.05;;;8.05;;
68714;SDS011;55692;53.356;10.030;2024-03-02T10:14:03;14.18;;;8.45;;
68714;SDS011;55692;53.356;10.030;2024-03-02T10:16:30;15.18;;;8.35;;
68714;SDS011;55692;53.356;10.030;2024-03-02T10:18:56;12.80;;;7.15;;
68714;SDS011;55692;53.356;10.030;2024-03-02T10:21:22;12.38;;;7.20;;
68714;SDS011;55692;53.356;10.030;2024-03-02T10:23:50;12.95;;;6.90;;
68714;SDS011;55692;53.356;10.030;2024-03-02T10:26:16;14.95;;;7.72;;
68714;SDS011;55692;53.356;10.030;2024-03-02T10:28:46;12.65;;;7.00;;
68714;SDS011;55692;53.356;10.030;2024-03-02T10:31:24;10.90;;;6.55;;
68714;SDS011;55692;53.356;10.030;2024-03-02T10:33:53;10.88;;;6.20;;
68714;SDS011;55692;53.356;10.030;2024-03-02T10:36:19;10.07;;;6.32;;
68714;SDS011;55692;53.356;10.030;2024-03-02T10:38:46;13.20;;;7.28;;
68714;SDS011;55692;53.356;10.030;2024-03-02T10:41:23;12.00;;;6.90;;
68714;SDS011;55692;53.356;10.030;2024-03-02T10:43:51;8.88;;;5.82;;
68714;SDS011;55692;53.356;10.030;2024-03-02T10:46:24;13.18;;;6.55;;
68714;SDS011;55692;53.356;10.030;2024-03-02T10:48:52;9.45;;;5.88;;
68714;SDS011;55692;53.356;10.030;2024-03-02T10:51:18;12.10;;;5.93;;
68714;SDS011;55692;53.356;10.030;2024-03-02T10:53:44;10.82;;;6.43;;
68714;SDS011;55692;53.356;10.030;2024-03-02T10:56:10;9.77;;;5.88;;
68714;SDS011;55692;53.356;10.030;2024-03-02T10:58:40;10.80;;;5.75;;
68714;SDS011;55692;53.356;10.030;2024-03-02T11:01:06;9.60;;;6.07;;
68714;SDS011;55692;53.356;10.030;2024-03-02T11:03:33;11.10;;;6.47;;
68714;SDS011;55692;53.356;10.030;2024-03-02T11:06:00;10.93;;;5.68;;
68714;SDS011;55692;53.356;10.030;2024-03-02T11:08:31;13.77;;;6.05;;
68714;SDS011;55692;53.356;10.030;2024-03-02T11:11:02;13.18;;;6.40;;
68714;SDS011;55692;53.356;10.030;2024-03-02T11:13:32;11.32;;;6.47;;
68714;SDS011;55692;53.356;10.030;2024-03-02T11:16:03;9.60;;;5.57;;
68714;SDS011;55692;53.356;10.030;2024-03-02T11:18:29;12.55;;;6.57;;
68714;SDS011;55692;53.356;10.030;2024-03-02T11:20:56;10.15;;;6.03;;
68714;SDS011;55692;53.356;10.030;2024-03-02T11:23:31;9.80;;;5.57;;
68714;SDS011;55692;53.356;10.030;2024-03-02T11:26:17;11.13;;;5.78;;
68714;SDS011;55692;53.356;10.030;2024-03-02T11:28:45;10.68;;;5.88;;
68714;SDS011;55692;53.356;10.030;2024-03-02T11:31:12;8.98;;;6.05;;
68714;SDS011;55692;53.356;10.030;2024-03-02T11:33:38;12.35;;;5.88;;
68714;SDS011;55692;53.356;10.030;2024-03-02T11:36:05;10.93;;;5.20;;
68714;SDS011;55692;53.356;10.030;2024-03-02T11:38:33;9.10;;;5.57;;
68714;SDS011;55692;53.356;10.030;2024-03-02T11:41:03;11.80;;;5.70;;
68714;SDS011;55692;53.356;10.030;2024-03-02T11:43:33;8.07;;;5.18;;
68714;SDS011;55692;53.356;10.030;2024-03-02T11:46:04;10.27;;;5.60;;
68714;SDS011;55692;53.356;10.030;2024-03-02T11:48:34;10.52;;;5.65;;
68714;SDS011;55692;53.356;10.030;2024-03-02T11:51:01;9.45;;;5.43;;
68714;SDS011;55692;53.356;10.030;2024-03-02T11:53:27;8.63;;;5.65;;
68714;SDS011;55692;53.356;10.030;2024-03-02T11:56:02;11.18;;;5.50;;
68714;SDS011;55692;53.356;10.030;2024-03-02T11:58:30;11.38;;;5.18;;
68714;SDS011;55692;53.356;10.030;2024-03-02T12:00:57;9.75;;;5.00;;
68714;SDS011;55692;53.356;10.030;2024-03-02T12:03:23;9.25;;;5.65;;
68714;SDS011;55692;53.356;10.030;2024-03-02T12:05:50;9.20;;;5.03;;
68714;SDS011;55692;53.356;10.030;2024-03-02T12:08:17;9.48;;;5.25;;
68714;SDS011;55692;53.356;10.030;2024-03-02T12:10:43;8.35;;;5.07;;
68714;SDS011;55692;53.356;10.030;2024-03-02T12:13:09;9.95;;;4.90;;
68714;SDS011;55692;53.356;10.030;2024-03-02T12:15:38;9.48;;;5.35;;
68714;SDS011;55692;53.356;10.030;2024-03-02T12:18:07;8.75;;;5.00;;
68714;SDS011;55692;53.356;10.030;2024-03-02T12:20:33;12.30;;;5.38;;
68714;SDS011;55692;53.356;10.030;2024-03-02T12:23:00;8.90;;;4.38;;
68714;SDS011;55692;53.356;10.030;2024-03-02T12:25:27;7.78;;;4.88;;
68714;SDS011;55692;53.356;10.030;2024-03-02T12:27:54;8.73;;;5.43;;
68714;SDS011;55692;53.356;10.030;2024-03-02T12:30:21;11.57;;;5.50;;
68714;SDS011;55692;53.356;10.030;2024-03-02T12:32:47;9.65;;;5.72;;
68714;SDS011;55692;53.356;10.030;2024-03-02T12:35:14;12.38;;;4.90;;
68714;SDS011;55692;53.356;10.030;2024-03-02T12:37:47;8.95;;;5.45;;
68714;SDS011;55692;53.356;10.030;2024-03-02T12:42:39;7.43;;;4.03;;
68714;SDS011;55692;53.356;10.030;2024-03-02T12:45:07;9.23;;;4.80;;
68714;SDS011;55692;53.356;10.030;2024-03-02T12:47:33;7.72;;;4.82;;
68714;SDS011;55692;53.356;10.030;2024-03-02T12:49:59;6.75;;;4.65;;
68714;SDS011;55692;53.356;10.030;2024-03-02T12:52:26;8.88;;;4.72;;
68714;SDS011;55692;53.356;10.030;2024-03-02T12:54:52;10.57;;;4.68;;
68714;SDS011;55692;53.356;10.030;2024-03-02T12:57:24;8.10;;;4.90;;
68714;SDS011;55692;53.356;10.030;2024-03-02T12:59:51;8.55;;;5.15;;
68714;SDS011;55692;53.356;10.030;2024-03-02T13:02:17;6.80;;;4.10;;
68714;SDS011;55692;53.356;10.030;2024-03-02T13:04:43;8.02;;;4.82;;
68714;SDS011;55692;53.356;10.030;2024-03-02T13:07:10;7.72;;;4.60;;
68714;SDS011;55692;53.356;10.030;2024-03-02T13:09:38;9.70;;;5.38;;
68714;SDS011;55692;53.356;10.030;2024-03-02T13:12:04;8.80;;;4.65;;
68714;SDS011;55692;53.356;10.030;2024-03-02T13:14:33;10.65;;;4.82;;
68714;SDS011;55692;53.356;10.030;2024-03-02T13:17:00;8.77;;;5.40;;
68714;SDS011;55692;53.356;10.030;2024-03-02T13:19:28;8.93;;;4.47;;
68714;SDS011;55692;53.356;10.030;2024-03-02T13:21:55;9.70;;;5.03;;
68714;SDS011;55692;53.356;10.030;2024-03-02T13:24:22;8.50;;;4.72;;
68714;SDS011;55692;53.356;10.030;2024-03-02T13:26:53;7.80;;;5.15;;
68714;SDS011;55692;53.356;10.030;2024-03-02T13:29:21;11.88;;;4.70;;
68714;SDS011;55692;53.356;10.030;2024-03-02T13:31:47;8.85;;;4.75;;
68714;SDS011;55692;53.356;10.030;2024-03-02T13:34:13;9.63;;;5.13;;
68714;SDS011;55692;53.356;10.030;2024-03-02T13:36:39;8.95;;;4.70;;
68714;SDS011;55692;53.356;10.030;2024-03-02T13:39:06;8.20;;;4.82;;
68714;SDS011;55692;53.356;10.030;2024-03-02T13:41:35;9.82;;;4.57;;
68714;SDS011;55692;53.356;10.030;2024-03-02T13:44:01;9.27;;;5.70;;
68714;SDS011;55692;53.356;10.030;2024-03-02T13:46:27;9.18;;;5.07;;
68714;SDS011;55692;53.356;10.030;2024-03-02T13:48:54;11.25;;;5.43;;
68714;SDS011;55692;53.356;10.030;2024-03-02T13:51:20;9.35;;;5.55;;
68714;SDS011;55692;53.356;10.030;2024-03-02T13:53:46;10.13;;;5.28;;
68714;SDS011;55692;53.356;10.030;2024-03-02T13:56:12;9.07;;;4.70;;
68714;SDS011;55692;53.356;10.030;2024-03-02T13:58:38;9.20;;;5.38;;
68714;SDS011;55692;53.356;10.030;2024-03-02T14:01:04;10.27;;;5.22;;
68714;SDS011;55692;53.356;10.030;2024-03-02T14:03:30;10.50;;;5.32;;
68714;SDS011;55692;53.356;10.030;2024-03-02T14:05:56;8.63;;;5.38;;
68714;SDS011;55692;53.356;10.030;2024-03-02T14:08:23;9.13;;;5.40;;
68714;SDS011;55692;53.356;10.030;2024-03-02T14:10:49;8.50;;;5.40;;
68714;SDS011;55692;53.356;10.030;2024-03-02T14:13:15;8.65;;;5.63;;
68714;SDS011;55692;53.356;10.030;2024-03-02T14:15:41;9.15;;;5.43;;
68714;SDS011;55692;53.356;10.030;2024-03-02T14:18:07;8.82;;;4.80;;
68714;SDS011;55692;53.356;10.030;2024-03-02T14:20:37;9.07;;;5.10;;